Flight Track Log - Related Links

Times and Time Zones

All times are in EDT time to prevent confusion due to time zone crossing. See the SWA616 flight status page for this flight to view local times or setup timezone preferences in your user account.

Time Position Orientation Groundspeed Altitude Reporting Facility
EDT Latitude Longitude Course Direction KTS MPH feet Rate Location/Type
Thu 07:41:00 AM 27.9667 -82.5500 180° South 161 185 900  Level Tampa TRACON
Thu 07:41:24 AM 27.9500 -82.5500 180° South 180 207 2,000 3,333 Climbing Tampa TRACON
Thu 07:42:30 AM 27.9000 -82.5833 211° Southwest 207 238 5,900 3,191 Climbing Tampa TRACON
Thu 07:44:17 AM 27.9639 -82.6411 321° Northwest 220 253 11,200 3,054 Climbing Jacksonville Center
Thu 07:45:17 AM 28.0619 -82.6361 North 275 316 14,400 3,300 Climbing Jacksonville Center
Thu 07:46:17 AM 28.1642 -82.6267 North 323 372 17,800 3,400 Climbing Jacksonville Center
Thu 07:47:17 AM 28.2728 -82.6192 North 356 410 21,200 3,300 Climbing Jacksonville Center
Thu 07:48:17 AM 28.3856 -82.6094 North 388 447 24,400 2,850 Climbing Jacksonville Center
Thu 07:49:17 AM 28.5044 -82.6019 North 403 464 26,900 2,650 Climbing Jacksonville Center
Thu 07:50:17 AM 28.6253 -82.5922 North 424 488 29,700 2,650 Climbing Jacksonville Center
Thu 07:51:17 AM 28.7422 -82.5942 359° North 424 488 32,200 2,600 Climbing Jacksonville Center
Thu 07:52:17 AM 28.8550 -82.6153 351° North 419 482 34,900 1,900 Climbing Jacksonville Center
Thu 07:53:17 AM 28.9719 -82.6314 353° North 419 482 36,000 550 Climbing Jacksonville Center
Thu 07:54:17 AM 29.0847 -82.6456 354° North 412 474 36,000  Level Jacksonville Center
Thu 07:55:17 AM 29.1953 -82.6619 353° North 407 468 36,000  Level Jacksonville Center
Thu 07:56:17 AM 29.3081 -82.6783 353° North 407 468 36,000  Level Jacksonville Center
Thu 07:57:17 AM 29.4208 -82.6922 354° North 407 468 36,000  Level Jacksonville Center
Thu 07:58:17 AM 29.5378 -82.6944 359° North 413 475 36,000 800 Level Jacksonville Center
Thu 07:59:17 AM 29.6525 -82.6775 North 413 475 37,600 1,750 Climbing Jacksonville Center
Thu 08:00:17 AM 29.7528 -82.6342 21° North 413 475 39,500 1,700 Climbing Jacksonville Center
Thu 08:01:17 AM 29.8592 -82.5981 16° North 407 468 41,000 750 Climbing Jacksonville Center
Thu 08:02:17 AM 29.9656 -82.5569 19° North 401 461 41,000  Level Jacksonville Center
Thu 08:03:17 AM 30.0697 -82.5231 16° North 401 461 41,000  Level Jacksonville Center
Thu 08:04:17 AM 30.1761 -82.4842 18° North 401 461 41,000  Level Jacksonville Center
Thu 08:05:17 AM 30.2844 -82.4453 17° North 401 461 41,000  Level Jacksonville Center
Thu 08:06:17 AM 30.3889 -82.4061 18° North 401 461 41,000  Level Jacksonville Center
Thu 08:07:17 AM 30.4950 -82.3669 18° North 401 461 41,000  Level Jacksonville Center
Thu 08:08:17 AM 30.5994 -82.3278 18° North 401 461 41,000  Level Jacksonville Center
Thu 08:09:17 AM 30.7078 -82.2886 17° North 401 461 41,000  Level Jacksonville Center
Thu 08:10:17 AM 30.8097 -82.2492 18° North 401 461 41,000  Level Jacksonville Center
Thu 08:11:17 AM 30.9161 -82.2072 19° North 401 461 41,000  Level Jacksonville Center
Thu 08:12:17 AM 31.0225 -82.1700 17° North 401 461 41,000  Level Jacksonville Center
Thu 08:13:17 AM 31.1286 -82.1281 19° North 401 461 41,000  Level Jacksonville Center
Thu 08:14:17 AM 31.2350 -82.0883 18° North 401 461 41,000  Level Jacksonville Center
Thu 08:15:17 AM 31.3411 -82.0486 18° North 401 461 41,000  Level Jacksonville Center
Thu 08:16:17 AM 31.4431 -82.0086 19° North 396 456 41,000  Level Jacksonville Center
Thu 08:17:17 AM 31.5578 -81.9636 18° North 390 449 41,000  Level Jacksonville Center
Thu 08:18:17 AM 31.6617 -81.9236 18° North 390 449 41,000  Level Jacksonville Center
Thu 08:19:17 AM 31.7575 -81.8858 19° North 390 449 41,000  Level Jacksonville Center
Thu 08:20:17 AM 31.8719 -81.8431 18° North 393 452 41,000  Level Jacksonville Center
Thu 08:21:17 AM 31.9761 -81.8028 18° North 393 452 41,000  Level Jacksonville Center
Thu 08:22:17 AM 32.0717 -81.7672 17° North 399 459 41,000  Level Jacksonville Center
Thu 08:23:17 AM 32.1883 -81.7217 18° North 399 459 41,000  Level Jacksonville Center
Thu 08:24:17 AM 32.2922 -81.6811 18° North 399 459 41,000  Level Jacksonville Center
Thu 08:25:17 AM 32.3858 -81.6453 18° North 399 459 41,000  Level Jacksonville Center
Thu 08:26:17 AM 32.5022 -81.5994 18° North 399 459 41,000  Level Jacksonville Center
Thu 08:27:17 AM 32.5936 -81.5586 21° North 399 459 41,000  Level Jacksonville Center
Thu 08:28:17 AM 32.7036 -81.4878 28° Northeast 393 452 41,000 -500 Level Jacksonville Center
Thu 08:29:17 AM 32.8031 -81.4244 28° Northeast 399 459 40,000 -950 Descending Jacksonville Center
Thu 08:30:17 AM 32.9044 -81.3561 29° Northeast 405 466 39,100 -950 Descending Jacksonville Center
Thu 08:31:17 AM 33.0061 -81.2875 30° Northeast 416 479 38,100 -950 Descending Jacksonville Center
Thu 08:32:17 AM 33.1136 -81.2136 30° Northeast 422 486 37,200 -550 Descending Jacksonville Center
Thu 08:33:17 AM 33.1983 -81.1575 29° Northeast 422 486 37,000 -100 Descending Jacksonville Center
Thu 08:34:17 AM 33.3142 -81.0806 29° Northeast 427 491 37,000  Level Jacksonville Center
Thu 08:35:17 AM 33.4194 -81.0064 30° Northeast 432 497 37,000  Level Jacksonville Center
Thu 08:36:17 AM 33.5269 -80.9367 28° Northeast 432 497 37,000 -350 Level Jacksonville Center
Thu 08:37:17 AM 33.6303 -80.8672 29° Northeast 432 497 36,300 -850 Descending Jacksonville Center
Thu 08:38:17 AM 33.7375 -80.7922 30° Northeast 432 497 35,300 -950 Descending Jacksonville Center
Thu 08:39:17 AM 33.8447 -80.7172 30° Northeast 432 497 34,400 -950 Descending Jacksonville Center
Thu 08:40:17 AM 33.9542 -80.6419 30° Northeast 432 497 33,400 -950 Descending Jacksonville Center
Thu 08:41:17 AM 34.0633 -80.5664 30° Northeast 438 504 32,500 -950 Descending Jacksonville Center
Thu 08:42:17 AM 34.1725 -80.4931 29° Northeast 438 504 31,500 -1,000 Descending Jacksonville Center
Thu 08:43:17 AM 34.2794 -80.4147 31° Northeast 438 504 30,500 -1,000 Descending Jacksonville Center
Thu 08:44:17 AM 34.3864 -80.3414 29° Northeast 438 504 29,500 -1,050 Descending Jacksonville Center
Thu 08:45:17 AM 34.4956 -80.2650 30° Northeast 438 504 28,400 -1,050 Descending Jacksonville Center
Thu 08:46:17 AM 34.5983 -80.1964 29° Northeast 438 504 27,400 -2,000 Descending Jacksonville Center
Thu 08:47:47 AM 34.7572 -80.0817 31° Northeast 420 483 23,400 -1,760 Descending Washington Center
Thu 08:48:47 AM 34.8417 -80.0003 38° Northeast 420 483 23,000 -198 Descending Washington Center
Thu 08:49:48 AM 34.9286 -79.9061 42° Northeast 420 483 23,000  Level Washington Center
Thu 08:50:48 AM 35.0175 -79.8094 42° Northeast 420 483 23,000  Level Washington Center
Thu 08:51:46 AM 35.1067 -79.7100 42° Northeast 420 483 23,000 -661 Level Washington Center
Thu 08:52:46 AM 35.1933 -79.6128 43° Northeast 415 478 21,700 -1,474 Descending Washington Center
Thu 08:53:40 AM 35.2853 -79.5436 32° Northeast 417 480 20,200 -1,500 Descending Washington Center
Thu 08:53:46 AM 35.2897 -79.5389 41° Northeast 415 478 20,200 -2,509 Level Washington Center
Thu 08:54:35 AM 35.3753 -79.4792 30° Northeast 396 456 17,900 -2,361 Descending Washington Center
Thu 08:54:47 AM 35.3858 -79.4694 37° Northeast 405 466 17,800 -984 Descending Washington Center
Thu 08:55:36 AM 35.4647 -79.4172 28° Northeast 369 425 16,900 -1,279 Descending Washington Center
Thu 08:55:48 AM 35.4839 -79.4031 31° Northeast 372 428 16,500 -1,966 Descending Washington Center
Thu 08:56:34 AM 35.5383 -79.3392 44° Northeast 344 396 15,000 -1,759 Descending Washington Center
Thu 08:56:46 AM 35.5428 -79.3242 70° East 347 399 14,800 -1,784 Descending Washington Center
Thu 08:57:48 AM 35.6067 -79.2197 53° Northeast 344 396 12,800 -1,707 Descending Washington Center
Thu 08:58:49 AM 35.6550 -79.1403 53° Northeast 338 389 11,300 -1,461 Descending Washington Center
Thu 08:59:43 AM 35.7075 -79.0531 53° Northeast 314 361 10,000 -1,368 Descending Washington Center
Thu 08:59:46 AM 35.7075 -79.0556 270° West 317 365 10,000 -1,500 Level Washington Center
Thu 09:00:39 AM 35.7514 -78.9781 55° Northeast 295 339 8,600 -1,452 Descending Washington Center
Thu 09:00:48 AM 35.7558 -78.9731 42° Northeast 306 352 8,500 -590 Descending Washington Center
Thu 09:01:40 AM 35.7972 -78.9058 53° Northeast 271 312 8,000 -517 Descending Washington Center
Thu 09:01:46 AM 35.8056 -78.9036 12° North 292 336 8,000  Level Washington Center
Thu 09:02:38 AM 35.8686 -78.8856 13° North 248 285 8,000  Level Washington Center
Thu 09:02:48 AM 35.8728 -78.8858 357° North 248 285 8,000 -984 Level Washington Center
Thu 09:03:39 AM 35.9364 -78.8578 20° North 257 296 7,000 -1,486 Descending Washington Center
Thu 09:04:33 AM 35.9858 -78.8033 42° Northeast 251 289 5,400 -2,311 Descending Washington Center
Thu 09:05:41 AM 36.0211 -78.7328 58° Northeast 243 280 2,300 -1,581 Descending Washington Center
Thu 09:06:42 AM 35.9822 -78.7006 146° Southeast 173 199 2,000 -347 Descending Washington Center
Thu 09:07:42 AM 35.9397 -78.7244 204° Southwest 153 176 1,600 -496 Descending Washington Center
Thu 09:08:43 AM 35.9161 -78.7517 223° Southwest 109 125 1,000 -590 Descending Washington Center
Thu 09:10:00 AM 35.8776 -78.7875 51° Northeast  Level Estimated
Thu 09:17:00 AM 35.8776 -78.7875 51° Northeast  Level Estimated
Thu 09:18:00 AM 35.8776 -78.7875 51° Northeast  Level Estimated
Thu 09:19:00 AM 35.8776 -78.7875 51° Northeast  Level Estimated

Login

Don't have an account? Register now (free) for customized features, flight alerts, and more!